createdAt,value
2019-06-20T00:02:17.035Z,14.28
2019-06-20T00:07:10.194Z,19.15
2019-06-20T00:12:03.845Z,18.10
2019-06-20T00:16:59.397Z,17.10
2019-06-20T00:21:51.876Z,19.90
2019-06-20T00:26:45.093Z,19.67
2019-06-20T00:31:38.503Z,23.07
2019-06-20T00:36:32.018Z,24.92
2019-06-20T00:41:25.568Z,25.30
2019-06-20T00:46:18.709Z,28.77
2019-06-20T00:51:11.864Z,29.20
2019-06-20T00:56:05.466Z,28.15
2019-06-20T01:00:58.797Z,31.62
2019-06-20T01:05:52.752Z,30.20
2019-06-20T01:10:45.927Z,27.55
2019-06-20T01:15:39.444Z,26.93
2019-06-20T01:20:32.672Z,28.50
2019-06-20T01:25:33.376Z,28.42
2019-06-20T01:30:26.937Z,31.60
2019-06-20T01:35:20.097Z,34.45
2019-06-20T01:40:14.532Z,31.00
2019-06-20T01:45:08.070Z,30.77
2019-06-20T01:50:01.915Z,35.90
2019-06-20T01:54:55.125Z,37.98
2019-06-20T01:59:48.550Z,30.77
2019-06-20T02:04:41.769Z,34.35
2019-06-20T02:09:34.916Z,35.68
2019-06-20T02:14:28.548Z,39.98
2019-06-20T02:19:21.700Z,39.75
2019-06-20T02:24:14.881Z,44.73
2019-06-20T02:29:08.049Z,39.80
2019-06-20T02:34:01.268Z,44.08
2019-06-20T02:38:54.420Z,40.75
2019-06-20T02:43:47.640Z,40.73
2019-06-20T02:48:40.816Z,41.58
2019-06-20T02:53:34.066Z,46.00
2019-06-20T02:58:27.291Z,41.18
2019-06-20T03:03:20.517Z,42.90
2019-06-20T03:08:13.682Z,42.00
2019-06-20T03:13:09.423Z,46.40
2019-06-20T03:18:02.087Z,37.70
2019-06-20T03:22:55.337Z,49.05
2019-06-20T03:27:48.878Z,44.80
2019-06-20T03:32:42.114Z,44.40
2019-06-20T03:37:35.611Z,45.95
2019-06-20T03:42:28.753Z,46.05
2019-06-20T03:47:22.355Z,48.73
2019-06-20T03:52:15.820Z,56.15
2019-06-20T03:57:09.951Z,46.98
2019-06-20T04:02:03.431Z,40.58
2019-06-20T04:06:56.580Z,57.48
2019-06-20T04:11:49.808Z,52.65
2019-06-20T04:16:42.953Z,49.58
2019-06-20T04:21:36.208Z,46.65
2019-06-20T04:26:29.616Z,58.90
2019-06-20T04:31:23.104Z,44.25
2019-06-20T04:36:16.319Z,48.50
2019-06-20T04:41:11.244Z,49.33
2019-06-20T04:46:18.005Z,55.90
2019-06-20T04:51:11.220Z,52.37
2019-06-20T04:56:05.866Z,46.18
2019-06-20T05:01:00.241Z,46.75
2019-06-20T05:05:53.385Z,43.33
2019-06-20T05:10:46.894Z,50.15
2019-06-20T05:15:51.955Z,51.13
2019-06-20T05:20:36.533Z,51.05
2019-06-20T05:25:29.692Z,41.02
2019-06-20T05:30:22.942Z,49.08
2019-06-20T05:35:16.413Z,59.55
2019-06-20T05:40:11.401Z,44.08
2019-06-20T05:45:05.547Z,52.03
2019-06-20T05:49:58.766Z,44.73
2019-06-20T05:54:52.001Z,56.77
2019-06-20T05:59:45.186Z,49.33
2019-06-20T06:04:38.406Z,50.88
2019-06-20T06:09:31.648Z,40.80
2019-06-20T06:14:25.251Z,48.15
2019-06-20T06:19:18.721Z,40.58
2019-06-20T06:24:12.060Z,53.42
2019-06-20T06:29:05.367Z,50.17
2019-06-20T06:33:58.945Z,51.37
2019-06-20T06:38:52.466Z,47.23
2019-06-20T06:43:45.624Z,39.23
2019-06-20T06:48:38.889Z,45.15
2019-06-20T06:53:32.126Z,45.40
2019-06-20T06:58:25.413Z,48.48
2019-06-20T07:03:18.628Z,40.28
2019-06-20T07:08:12.184Z,51.88
2019-06-20T07:13:05.411Z,37.17
2019-06-20T07:17:58.569Z,42.88
2019-06-20T07:22:51.805Z,35.25
2019-06-20T07:27:45.346Z,33.20
2019-06-20T07:32:38.821Z,31.73
2019-06-20T07:37:31.997Z,33.95
2019-06-20T07:42:25.496Z,42.00
2019-06-20T07:47:19.053Z,25.90
2019-06-20T07:52:12.556Z,28.47
2019-06-20T07:57:06.785Z,31.35
2019-06-20T08:02:00.013Z,33.25
2019-06-20T08:06:53.356Z,26.87
2019-06-20T08:11:46.587Z,25.15
2019-06-20T08:16:40.084Z,29.67
2019-06-20T08:21:33.352Z,29.57
2019-06-20T08:26:26.768Z,33.92
2019-06-20T08:31:20.015Z,27.60
2019-06-20T08:36:13.517Z,20.75
2019-06-20T08:41:06.804Z,33.75
2019-06-20T08:46:00.053Z,22.25
2019-06-20T08:50:53.284Z,23.20
2019-06-20T08:55:46.863Z,16.02
2019-06-20T09:00:40.254Z,17.82
2019-06-20T09:05:33.554Z,17.25
2019-06-20T09:10:28.308Z,22.00
2019-06-20T09:15:21.615Z,21.82
2019-06-20T09:20:15.307Z,29.40
2019-06-20T09:25:08.734Z,24.85
2019-06-20T09:30:03.496Z,28.00
2019-06-20T09:34:56.961Z,22.10
2019-06-20T09:39:51.526Z,24.10
2019-06-20T09:44:45.012Z,25.35
2019-06-20T09:49:38.248Z,28.32
2019-06-20T09:54:31.716Z,20.85
2019-06-20T09:59:27.911Z,18.87
2019-06-20T10:04:21.599Z,25.75
2019-06-20T10:09:15.261Z,23.22
2019-06-20T10:14:08.427Z,22.82
2019-06-20T10:19:01.690Z,21.27
2019-06-20T10:23:55.993Z,23.30
2019-06-20T10:28:49.329Z,22.62
2019-06-20T10:33:42.572Z,21.97
2019-06-20T10:38:35.910Z,22.17
2019-06-20T10:43:29.139Z,28.55
2019-06-20T10:48:22.389Z,24.45
2019-06-20T10:53:15.615Z,26.45
2019-06-20T10:58:08.841Z,20.72
2019-06-20T11:03:02.081Z,22.73
2019-06-20T11:07:55.374Z,21.05
2019-06-20T11:12:54.836Z,19.37
2019-06-20T11:17:44.938Z,19.98
2019-06-20T11:22:39.812Z,27.67
2019-06-20T11:27:34.537Z,27.65
2019-06-20T11:32:27.973Z,26.30
2019-06-20T11:37:21.196Z,23.83
2019-06-20T11:42:15.556Z,26.35
2019-06-20T11:47:08.701Z,34.60
2019-06-20T11:52:05.208Z,22.80
2019-06-20T12:02:29.994Z,20.90
2019-06-20T12:07:23.286Z,27.40
2019-06-20T12:12:16.800Z,27.73
2019-06-20T12:17:10.008Z,19.98
2019-06-20T12:22:03.181Z,23.25
2019-06-20T12:26:56.412Z,23.90
2019-06-20T12:31:49.574Z,22.80
2019-06-20T12:36:42.873Z,26.25
2019-06-20T12:41:36.454Z,22.40
2019-06-20T12:46:30.017Z,26.77
2019-06-20T12:51:23.244Z,34.45
2019-06-20T12:56:16.786Z,39.97
2019-06-20T13:01:10.402Z,30.65
2019-06-20T13:06:03.624Z,26.48
2019-06-20T13:10:56.860Z,27.77
2019-06-20T13:15:50.402Z,28.05
2019-06-20T13:20:44.247Z,23.62
2019-06-20T13:25:37.770Z,14.73
2019-06-20T13:30:32.438Z,11.73
2019-06-20T13:35:25.768Z,10.30
2019-06-20T13:40:23.633Z,10.98
2019-06-20T13:45:21.127Z,15.30
2019-06-20T13:50:14.433Z,12.05
2019-06-20T13:55:07.656Z,10.25
2019-06-20T14:00:01.519Z,10.78
2019-06-20T14:04:55.009Z,8.98
2019-06-20T14:09:48.765Z,10.10
2019-06-20T14:14:42.654Z,9.70
2019-06-20T14:19:37.385Z,10.50
2019-06-20T14:24:30.605Z,7.80
2019-06-20T14:29:24.092Z,9.28
2019-06-20T14:34:17.265Z,8.38
2019-06-20T14:39:10.837Z,6.53
2019-06-20T14:44:04.140Z,11.10
2019-06-20T14:48:57.380Z,9.43
2019-06-20T14:53:50.687Z,8.75
2019-06-20T14:58:44.950Z,11.57
2019-06-20T15:03:38.337Z,12.18
2019-06-20T15:08:31.574Z,12.18
2019-06-20T15:13:25.123Z,16.40
2019-06-20T15:18:18.468Z,10.88
2019-06-20T15:23:11.909Z,9.53
2019-06-20T15:28:05.152Z,11.68
2019-06-20T15:33:07.859Z,11.85
2019-06-20T15:37:53.876Z,10.85
2019-06-20T15:42:49.576Z,13.53
2019-06-20T15:47:43.392Z,10.35
2019-06-20T15:52:36.641Z,11.28
2019-06-20T15:57:29.873Z,10.50
2019-06-20T16:02:23.105Z,8.70
2019-06-20T16:07:16.735Z,10.45
2019-06-20T16:12:09.919Z,11.48
2019-06-20T16:17:03.535Z,9.48
2019-06-20T16:21:59.569Z,13.18
2019-06-20T16:26:52.719Z,9.20
2019-06-20T16:31:45.880Z,8.88
2019-06-20T16:36:39.133Z,8.73
2019-06-20T16:41:32.608Z,11.55
2019-06-20T16:46:25.859Z,12.17
2019-06-20T16:51:19.456Z,13.43
2019-06-20T16:56:12.756Z,9.93
2019-06-20T17:01:06.041Z,17.75
2019-06-20T17:06:00.031Z,21.12
2019-06-20T17:10:53.264Z,12.75
2019-06-20T17:15:46.694Z,16.67
2019-06-20T17:20:40.262Z,5.20
2019-06-20T17:25:33.773Z,6.83
2019-06-20T17:30:27.053Z,6.05
2019-06-20T17:35:20.210Z,10.00
2019-06-20T17:40:14.722Z,9.73
2019-06-20T17:45:08.873Z,6.90
2019-06-20T17:50:02.145Z,6.70
2019-06-20T17:54:56.339Z,6.40
2019-06-20T17:59:49.673Z,5.12
2019-06-20T18:04:42.918Z,6.83
2019-06-20T18:09:36.624Z,5.10
2019-06-20T18:14:33.330Z,8.98
2019-06-20T18:19:25.261Z,7.25
2019-06-20T18:24:19.774Z,5.12
2019-06-20T18:29:12.957Z,10.68
2019-06-20T18:34:06.215Z,4.05
2019-06-20T18:38:59.372Z,5.53
2019-06-20T18:43:54.415Z,11.03
2019-06-20T18:48:47.926Z,12.88
2019-06-20T18:53:41.489Z,10.13
2019-06-20T18:58:34.969Z,6.12
2019-06-20T19:03:28.460Z,5.50
2019-06-20T19:08:21.622Z,5.58
2019-06-20T19:13:14.835Z,7.50
2019-06-20T19:18:07.994Z,3.87
2019-06-20T19:23:01.211Z,4.30
2019-06-20T19:27:54.624Z,4.00
2019-06-20T19:32:48.110Z,5.62
2019-06-20T19:37:41.265Z,5.15
2019-06-20T19:42:34.848Z,6.05
2019-06-20T19:47:28.776Z,5.08
2019-06-20T19:52:21.921Z,4.25
2019-06-20T19:57:15.408Z,5.05
2019-06-20T20:02:08.685Z,4.17
2019-06-20T20:07:01.836Z,5.80
2019-06-20T20:11:55.123Z,5.85
2019-06-20T20:16:48.301Z,4.62
2019-06-20T20:21:41.459Z,5.78
2019-06-20T20:26:34.972Z,8.70
2019-06-20T20:31:28.211Z,4.50
2019-06-20T20:36:25.175Z,6.80
2019-06-20T20:41:16.281Z,4.33
2019-06-20T20:46:09.499Z,7.25
2019-06-20T20:51:03.059Z,5.33
2019-06-20T20:55:56.291Z,6.85
2019-06-20T21:00:55.760Z,4.30
2019-06-20T21:05:51.792Z,7.47
2019-06-20T21:10:45.570Z,6.85
2019-06-20T21:15:38.800Z,7.07
2019-06-20T21:20:32.016Z,6.65
2019-06-20T21:25:25.163Z,7.12
2019-06-20T21:30:18.828Z,10.58
2019-06-20T21:35:12.696Z,11.83
2019-06-20T21:40:06.401Z,7.05
2019-06-20T21:45:01.391Z,9.15
2019-06-20T21:49:54.578Z,7.78
2019-06-20T21:54:47.832Z,5.50
2019-06-20T21:59:41.299Z,6.97
2019-06-20T22:04:34.516Z,7.22
2019-06-20T22:09:27.710Z,8.40
2019-06-20T22:14:21.177Z,8.98
2019-06-20T22:19:14.388Z,9.23
2019-06-20T22:24:07.620Z,9.50
2019-06-20T22:29:01.112Z,8.75
2019-06-20T22:33:54.337Z,8.15
2019-06-20T22:38:47.809Z,9.00
2019-06-20T22:43:41.227Z,8.85
2019-06-20T22:48:34.444Z,10.38
2019-06-20T22:53:27.594Z,8.48
2019-06-20T22:58:20.813Z,6.40
2019-06-20T23:03:14.041Z,9.13
2019-06-20T23:08:07.953Z,7.10
2019-06-20T23:13:02.044Z,7.87
2019-06-20T23:17:55.529Z,12.95
2019-06-20T23:22:48.751Z,8.50
2019-06-20T23:27:41.973Z,11.70
2019-06-20T23:32:35.193Z,7.55
2019-06-20T23:37:29.036Z,12.65
2019-06-20T23:42:22.596Z,8.88
2019-06-20T23:47:15.736Z,13.45
2019-06-20T23:52:13.527Z,9.48
2019-06-20T23:57:06.952Z,12.55
